Time;durP1;ratioP1;P1;durP2;ratioP2;P2;SDS_P1;SDS_P2;PMS_P1;PMS_P2;Temp;Humidity;BMP_temperature;BMP_pressure;BME280_temperature;BME280_humidity;BME280_pressure;Samples;Min_cycle;Max_cycle;Signal;HPM_P1;HPM_P2
2023/06/21 00:01:42;;;;;;;14.23;13.00;;;;;;;20.57;100.00;101015.41;5002723;28;20445;-43
2023/06/21 00:04:10;;;;;;;14.83;13.73;;;;;;;20.57;100.00;100998.34;5002884;28;20467;-43
2023/06/21 00:06:39;;;;;;;13.50;12.40;;;;;;;20.53;100.00;101000.72;5003088;28;20433;-44
2023/06/21 00:09:06;;;;;;;15.70;14.50;;;;;;;20.53;100.00;100989.06;5002679;28;20473;-46
2023/06/21 00:11:34;;;;;;;15.77;14.47;;;;;;;20.47;100.00;100988.22;5002827;28;20543;-45
2023/06/21 00:14:02;;;;;;;14.60;13.50;;;;;;;20.50;100.00;100985.00;5002551;28;20480;-42
2023/06/21 00:16:31;;;;;;;16.43;15.13;;;;;;;20.51;100.00;100983.09;5002618;28;20455;-48
2023/06/21 00:19:00;;;;;;;17.20;15.90;;;;;;;20.48;100.00;100975.47;5002978;28;20485;-45
2023/06/21 00:21:28;;;;;;;18.67;17.20;;;;;;;20.48;100.00;100984.44;5001610;28;20540;-43
2023/06/21 00:23:56;;;;;;;18.37;16.87;;;;;;;20.51;100.00;100981.22;5001547;28;20461;-46
2023/06/21 00:26:23;;;;;;;18.93;17.43;;;;;;;20.42;100.00;100977.31;5001681;28;20954;-45
2023/06/21 00:28:51;;;;;;;18.40;16.77;;;;;;;20.38;100.00;100955.34;5001565;28;20491;-45
2023/06/21 00:31:19;;;;;;;20.13;18.53;;;;;;;20.36;100.00;100953.97;5001589;28;20477;-46
2023/06/21 00:33:48;;;;;;;21.37;19.43;;;;;;;20.28;100.00;100947.09;5001174;28;20910;-47
2023/06/21 00:36:16;;;;;;;19.50;17.80;;;;;;;20.24;100.00;100950.56;5001948;28;20833;-48
2023/06/21 00:38:44;;;;;;;20.40;18.80;;;;;;;20.20;100.00;100936.72;5002012;28;20453;-48
2023/06/21 00:41:11;;;;;;;22.97;20.90;;;;;;;20.12;100.00;100923.63;5001115;28;20839;-44
2023/06/21 00:43:39;;;;;;;23.53;21.57;;;;;;;20.07;100.00;100910.03;5000665;28;20481;-45
2023/06/21 00:46:06;;;;;;;21.90;19.73;;;;;;;20.06;100.00;100896.75;5000702;28;20959;-45
2023/06/21 00:48:34;;;;;;;24.70;22.40;;;;;;;20.03;100.00;100898.09;4998903;28;20539;-45
2023/06/21 00:51:04;;;;;;;23.30;20.90;;;;;;;20.03;100.00;100918.94;5011032;28;20476;-46
2023/06/21 00:53:32;;;;;;;20.97;19.17;;;;;;;20.05;100.00;100916.78;5011218;28;20466;-43
2023/06/21 00:56:01;;;;;;;25.73;23.23;;;;;;;20.05;100.00;100923.00;5001405;28;20464;-49
2023/06/21 00:58:29;;;;;;;21.07;19.33;;;;;;;20.04;100.00;100918.66;5001771;28;20464;-43
2023/06/21 01:00:57;;;;;;;24.80;22.73;;;;;;;20.03;100.00;100930.56;5001661;28;20849;-45
2023/06/21 01:03:26;;;;;;;25.07;22.77;;;;;;;20.01;100.00;100940.81;5000816;28;21025;-46
2023/06/21 01:06:11;;;;;;;22.10;20.07;;;;;;;20.00;100.00;100954.63;5001810;28;20437;-44
2023/06/21 01:08:46;;;;;;;22.33;20.43;;;;;;;20.01;100.00;100958.97;5002037;28;20528;-47
2023/06/21 01:11:24;;;;;;;22.97;20.97;;;;;;;19.99;100.00;100961.09;5001572;28;20505;-43
2023/06/21 01:14:04;;;;;;;27.80;25.07;;;;;;;19.96;100.00;100959.72;5000678;28;21064;-46
2023/06/21 01:16:38;;;;;;;24.67;22.47;;;;;;;19.95;100.00;100965.41;5001163;28;20448;-43
2023/06/21 01:19:08;;;;;;;25.60;23.30;;;;;;;19.92;100.00;100982.97;5001320;28;20463;-44
2023/06/21 01:21:39;;;;;;;25.23;23.03;;;;;;;19.89;100.00;101005.13;5001197;28;20480;-46
2023/06/21 01:24:25;;;;;;;24.20;22.10;;;;;;;19.86;100.00;101016.44;5000968;28;20457;-43
2023/06/21 01:27:01;;;;;;;20.67;18.77;;;;;;;19.79;100.00;100994.97;5001034;28;20441;-46
2023/06/21 01:29:32;;;;;;;23.33;21.00;;;;;;;19.80;100.00;101002.00;5001410;28;20454;-44
2023/06/21 01:32:02;;;;;;;23.37;21.50;;;;;;;19.79;100.00;101003.09;5001425;28;20477;-43
2023/06/21 01:34:32;;;;;;;24.33;22.23;;;;;;;19.76;100.00;101006.31;5001005;28;20808;-42
2023/06/21 01:37:00;;;;;;;26.20;23.60;;;;;;;19.75;100.00;101012.78;5001912;28;20434;-43
2023/06/21 01:39:28;;;;;;;25.87;23.77;;;;;;;19.73;100.00;101019.50;5001133;28;20534;-45
2023/06/21 01:41:56;;;;;;;25.20;22.80;;;;;;;19.68;100.00;101008.63;5000975;28;20429;-44
2023/06/21 01:44:24;;;;;;;24.17;21.90;;;;;;;19.64;100.00;101024.53;5000214;28;20532;-44
2023/06/21 01:46:56;;;;;;;25.37;23.07;;;;;;;19.60;100.00;101017.97;5001153;28;20445;-46
2023/06/21 01:49:26;;;;;;;27.47;24.87;;;;;;;19.53;100.00;101003.00;5000626;28;20831;-44
2023/06/21 01:51:55;;;;;;;24.70;22.20;;;;;;;19.50;100.00;101011.63;5000229;28;20473;-44
2023/06/21 01:54:25;;;;;;;25.10;22.83;;;;;;;19.49;100.00;101013.50;4999358;28;20508;-44
2023/06/21 01:56:59;;;;;;;24.30;22.20;;;;;;;19.48;100.00;101017.25;5001151;28;20462;-46
2023/06/21 01:59:28;;;;;;;25.43;23.13;;;;;;;19.49;100.00;101015.38;5000668;28;21007;-45
2023/06/21 02:01:59;;;;;;;25.33;23.27;;;;;;;19.49;100.00;101007.25;5000634;28;20436;-45
2023/06/21 02:04:29;;;;;;;27.20;24.70;;;;;;;19.49;100.00;101009.97;5000180;28;20461;-43
2023/06/21 02:06:57;;;;;;;26.37;24.17;;;;;;;19.47;100.00;101001.28;5001066;28;20429;-43
2023/06/21 02:09:26;;;;;;;25.60;23.37;;;;;;;19.44;100.00;101007.19;5000600;28;20492;-44
2023/06/21 02:11:54;;;;;;;23.93;21.57;;;;;;;19.41;100.00;101003.13;4999731;28;20466;-48
2023/06/21 02:14:22;;;;;;;25.43;22.60;;;;;;;19.42;100.00;101020.97;5000216;28;20476;-45
2023/06/21 02:16:50;;;;;;;23.03;21.13;;;;;;;19.42;100.00;101023.66;5000502;28;20437;-43
2023/06/21 02:19:20;;;;;;;25.70;23.50;;;;;;;19.42;100.00;101033.66;4999986;28;20461;-43
2023/06/21 02:21:48;;;;;;;24.60;22.50;;;;;;;19.40;100.00;101028.50;5000199;28;20449;-47
2023/06/21 02:24:16;;;;;;;26.57;24.00;;;;;;;19.34;100.00;101024.06;4999893;28;20469;-42
2023/06/21 02:26:44;;;;;;;27.30;24.50;;;;;;;19.31;100.00;101025.38;5000889;28;20485;-46
2023/06/21 02:29:11;;;;;;;26.40;24.10;;;;;;;19.25;100.00;101023.66;5000474;28;20460;-43
2023/06/21 02:31:39;;;;;;;28.70;26.00;;;;;;;19.25;100.00;101020.94;4999902;28;20474;-48
2023/06/21 02:34:07;;;;;;;29.17;26.67;;;;;;;19.22;100.00;101016.03;4999387;28;20504;-43
2023/06/21 02:36:38;;;;;;;30.23;27.20;;;;;;;19.19;100.00;101019.25;5000139;28;20433;-43
2023/06/21 02:39:07;;;;;;;25.50;23.07;;;;;;;19.18;100.00;101014.88;4999737;28;20460;-45
2023/06/21 02:41:34;;;;;;;27.10;24.70;;;;;;;19.17;100.00;101013.25;4999585;28;20433;-47
2023/06/21 02:44:02;;;;;;;28.83;26.23;;;;;;;19.16;100.00;101029.72;4999507;28;20474;-44
2023/06/21 02:46:30;;;;;;;25.47;23.40;;;;;;;19.13;100.00;101027.50;5000010;28;20492;-43
2023/06/21 02:48:58;;;;;;;26.03;23.73;;;;;;;19.10;100.00;101036.94;4999220;28;21038;-48
2023/06/21 02:51:25;;;;;;;27.07;24.87;;;;;;;19.10;100.00;101038.81;4998434;28;20473;-43
2023/06/21 02:53:54;;;;;;;25.67;23.30;;;;;;;19.06;100.00;101051.16;4998403;28;20465;-44
2023/06/21 02:56:22;;;;;;;26.47;24.20;;;;;;;19.03;100.00;101043.53;4999116;28;20469;-42
2023/06/21 02:58:50;;;;;;;28.63;25.93;;;;;;;19.02;100.00;101040.03;4998928;28;20457;-45
2023/06/21 03:01:17;;;;;;;29.27;26.83;;;;;;;18.99;100.00;101029.72;4998708;28;20438;-43
2023/06/21 03:03:45;;;;;;;28.57;26.07;;;;;;;18.95;100.00;101023.16;4998538;28;20469;-42
2023/06/21 03:06:13;;;;;;;26.60;24.30;;;;;;;18.90;100.00;101025.78;4999284;28;20961;-46
2023/06/21 03:08:41;;;;;;;24.67;22.70;;;;;;;18.88;100.00;101025.19;4998610;28;20458;-44
2023/06/21 03:11:12;;;;;;;27.00;24.57;;;;;;;18.87;100.00;101030.84;4997942;28;20433;-44
2023/06/21 03:13:39;;;;;;;28.50;25.73;;;;;;;18.83;100.00;101033.22;4998307;28;20500;-43
2023/06/21 03:16:07;;;;;;;28.83;26.43;;;;;;;18.80;100.00;101036.41;4998913;28;20430;-51
2023/06/21 03:18:36;;;;;;;29.70;26.97;;;;;;;18.80;100.00;101036.41;4998900;28;20816;-44
2023/06/21 03:21:03;;;;;;;25.53;23.33;;;;;;;18.80;100.00;101033.69;4999753;28;20489;-42
2023/06/21 03:23:31;;;;;;;27.00;24.67;;;;;;;18.77;100.00;101032.31;4998805;28;20465;-47
2023/06/21 03:25:59;;;;;;;27.70;24.90;;;;;;;18.76;100.00;101030.66;4999258;28;20434;-43
2023/06/21 03:28:28;;;;;;;25.93;23.73;;;;;;;18.75;100.00;101028.22;4999203;28;20476;-42
2023/06/21 03:30:57;;;;;;;27.03;24.73;;;;;;;18.74;100.00;101029.28;4998651;28;20576;-43
2023/06/21 03:33:25;;;;;;;28.13;25.60;;;;;;;18.72;100.00;101037.63;4998692;28;20462;-45
2023/06/21 03:35:54;;;;;;;26.33;24.03;;;;;;;18.69;100.00;101038.13;4999234;28;20464;-44
2023/06/21 03:38:22;;;;;;;28.30;25.80;;;;;;;18.70;100.00;101038.91;5000214;28;20457;-45
2023/06/21 03:40:49;;;;;;;25.93;23.83;;;;;;;18.73;100.00;101027.63;4999482;28;21105;-43
2023/06/21 03:43:17;;;;;;;28.00;25.40;;;;;;;18.75;100.00;101028.22;4998326;28;20457;-44
2023/06/21 03:45:47;;;;;;;25.73;23.53;;;;;;;18.82;100.00;101030.78;4998709;28;20437;-45
2023/06/21 03:48:15;;;;;;;23.43;21.53;;;;;;;18.87;100.00;101034.38;4999230;28;20430;-44
2023/06/21 03:50:42;;;;;;;25.60;23.60;;;;;;;18.98;100.00;101038.06;4998883;28;20440;-42
2023/06/21 03:53:10;;;;;;;27.00;24.50;;;;;;;19.09;100.00;101031.75;4998369;28;20477;-43
2023/06/21 03:55:38;;;;;;;25.40;23.37;;;;;;;19.24;100.00;101032.00;4998779;28;20462;-44
2023/06/21 03:58:06;;;;;;;24.13;22.10;;;;;;;19.44;100.00;101039.66;4998678;28;20472;-43
2023/06/21 04:00:33;;;;;;;25.37;23.37;;;;;;;19.60;100.00;101042.31;4999156;28;20434;-43
2023/06/21 04:03:02;;;;;;;26.30;24.10;;;;;;;19.69;100.00;101045.41;4998094;28;20436;-47
2023/06/21 04:05:30;;;;;;;26.87;24.50;;;;;;;19.78;100.00;101049.34;4999393;28;20437;-43
2023/06/21 04:07:58;;;;;;;24.37;22.50;;;;;;;19.88;100.00;101044.06;4999174;28;20503;-44
2023/06/21 04:10:26;;;;;;;26.83;24.73;;;;;;;19.99;100.00;101045.03;4999122;28;20426;-45
2023/06/21 04:12:55;;;;;;;23.30;21.60;;;;;;;20.11;100.00;101048.41;4998566;28;20473;-46
2023/06/21 04:15:23;;;;;;;22.80;20.90;;;;;;;20.26;100.00;101057.59;4998523;28;20425;-44
2023/06/21 04:17:50;;;;;;;23.20;21.40;;;;;;;20.48;100.00;101049.44;4998738;28;20433;-43
2023/06/21 04:20:20;;;;;;;25.63;23.27;;;;;;;20.54;100.00;101055.75;4998877;28;20511;-43
2023/06/21 04:22:47;;;;;;;25.20;23.10;;;;;;;20.49;100.00;101051.06;5001766;28;20445;-44
2023/06/21 04:25:16;;;;;;;23.27;21.03;;;;;;;20.38;100.00;101055.56;5001772;28;20461;-42
2023/06/21 04:27:45;;;;;;;26.67;23.90;;;;;;;20.32;100.00;101059.28;5002433;28;20433;-46
2023/06/21 04:30:14;;;;;;;23.37;21.30;;;;;;;20.27;100.00;101058.41;5002293;28;20982;-47
2023/06/21 04:32:45;;;;;;;22.80;21.10;;;;;;;20.24;100.00;101067.84;5001743;28;20465;-45
2023/06/21 04:35:15;;;;;;;24.33;22.23;;;;;;;20.23;100.00;101074.31;5001439;28;20540;-44
2023/06/21 04:37:45;;;;;;;24.10;22.10;;;;;;;20.17;100.00;101069.91;5001190;28;20900;-43
2023/06/21 04:40:15;;;;;;;24.90;22.90;;;;;;;20.12;100.00;101075.25;5001488;28;20871;-46
2023/06/21 04:42:46;;;;;;;23.30;20.90;;;;;;;20.11;100.00;101079.03;5002088;28;20437;-45
2023/06/21 04:45:15;;;;;;;24.87;22.67;;;;;;;20.11;100.00;101078.22;5000976;28;20492;-44
2023/06/21 04:47:46;;;;;;;22.57;20.27;;;;;;;20.08;100.00;101073.28;5001237;28;20792;-43
2023/06/21 04:50:15;;;;;;;24.47;22.57;;;;;;;20.10;100.00;101073.88;5001322;28;20456;-45
2023/06/21 04:53:04;;;;;;;22.93;20.97;;;;;;;20.17;100.00;101079.91;5000853;28;20450;-49
2023/06/21 04:55:32;;;;;;;22.37;20.27;;;;;;;20.26;100.00;101081.97;5001374;28;20437;-42
2023/06/21 04:58:02;;;;;;;21.37;19.67;;;;;;;20.42;100.00;101082.97;5001444;28;21101;-42
2023/06/21 05:00:29;;;;;;;20.80;18.77;;;;;;;20.67;100.00;101088.66;5001171;28;20516;-46
2023/06/21 05:02:58;;;;;;;22.80;20.47;;;;;;;20.95;100.00;101091.13;5000663;28;20959;-43
2023/06/21 05:05:25;;;;;;;21.07;19.33;;;;;;;21.41;100.00;101086.94;5001425;28;20816;-44
2023/06/21 05:07:53;;;;;;;22.63;20.83;;;;;;;21.76;100.00;101088.28;5001246;28;20916;-49
2023/06/21 05:10:23;;;;;;;22.73;20.07;;;;;;;21.89;100.00;101091.38;5001038;28;20440;-43
2023/06/21 05:12:51;;;;;;;18.53;17.03;;;;;;;21.92;100.00;101095.50;5000112;28;21066;-44
2023/06/21 05:15:19;;;;;;;21.17;19.43;;;;;;;21.92;100.00;101104.44;5000685;28;20472;-44
2023/06/21 05:17:47;;;;;;;20.43;18.77;;;;;;;21.83;100.00;101099.75;5001213;28;20469;-45
2023/06/21 05:20:15;;;;;;;20.83;18.67;;;;;;;21.83;100.00;101099.75;5000306;28;20469;-46
2023/06/21 05:22:43;;;;;;;22.07;20.47;;;;;;;21.80;100.00;101113.84;5000460;28;20461;-43
2023/06/21 05:25:10;;;;;;;23.07;21.27;;;;;;;21.71;100.00;101110.81;4999668;28;20469;-45
2023/06/21 05:27:40;;;;;;;21.70;20.10;;;;;;;21.86;100.00;101112.81;4993431;28;20473;-46
2023/06/21 05:30:08;;;;;;;22.33;20.50;;;;;;;22.05;100.00;101114.00;4999580;28;20528;-45
2023/06/21 05:32:36;;;;;;;24.03;21.63;;;;;;;22.09;100.00;101128.72;4999651;28;20484;-43
2023/06/21 05:35:04;;;;;;;22.40;20.40;;;;;;;22.11;100.00;101123.81;4999369;28;20563;-48
2023/06/21 05:37:32;;;;;;;24.00;22.00;;;;;;;22.14;100.00;101133.34;4999537;28;20465;-48
2023/06/21 05:40:02;;;;;;;21.70;19.87;;;;;;;21.97;100.00;101133.53;4999615;28;20457;-48
2023/06/21 05:42:30;;;;;;;24.73;22.60;;;;;;;21.74;100.00;101137.44;4999973;28;20836;-46
2023/06/21 05:44:59;;;;;;;25.53;23.60;;;;;;;21.54;100.00;101156.25;4999863;28;20465;-46
2023/06/21 05:47:26;;;;;;;22.23;20.40;;;;;;;21.51;100.00;101151.34;4999537;28;20444;-43
2023/06/21 05:49:54;;;;;;;25.17;22.60;;;;;;;21.53;100.00;101154.63;4994106;28;20450;-44
2023/06/21 05:52:23;;;;;;;25.87;23.47;;;;;;;21.63;100.00;101153.88;4993295;28;20975;-45
2023/06/21 05:54:51;;;;;;;24.33;22.20;;;;;;;21.85;100.00;101170.88;4992960;28;20473;-47
2023/06/21 05:57:18;;;;;;;23.57;21.60;;;;;;;22.03;100.00;101167.78;4993542;28;20430;-45
2023/06/21 05:59:46;;;;;;;25.00;23.10;;;;;;;22.16;100.00;101172.75;4993450;28;20506;-44
2023/06/21 06:02:15;;;;;;;20.93;19.53;;;;;;;22.38;100.00;101169.88;4990584;28;20438;-45
2023/06/21 06:04:43;;;;;;;24.10;22.20;;;;;;;22.40;100.00;101165.81;4992672;28;20469;-45
2023/06/21 06:07:12;;;;;;;22.30;20.43;;;;;;;22.35;100.00;101165.78;4992918;28;20484;-44
2023/06/21 06:09:40;;;;;;;24.47;22.20;;;;;;;22.33;100.00;101156.28;4992884;28;20464;-47
2023/06/21 06:12:08;;;;;;;24.60;22.40;;;;;;;22.40;100.00;101146.78;4993161;28;20437;-47
2023/06/21 06:14:37;;;;;;;20.53;18.93;;;;;;;22.90;100.00;101146.22;4992659;28;20506;-44
2023/06/21 06:17:04;;;;;;;20.70;18.87;;;;;;;23.95;100.00;101146.53;4992556;28;20445;-44
2023/06/21 06:19:34;;;;;;;19.10;17.67;;;;;;;24.73;100.00;101131.28;4992973;28;20458;-48
2023/06/21 06:22:02;;;;;;;16.60;15.40;;;;;;;25.95;100.00;101128.50;4992345;28;20437;-44
2023/06/21 06:24:29;;;;;;;15.37;14.47;;;;;;;26.74;100.00;101123.16;4991946;28;20465;-46
2023/06/21 06:26:59;;;;;;;15.13;14.23;;;;;;;27.25;100.00;101130.66;4993031;28;20476;-45
2023/06/21 06:29:26;;;;;;;14.50;13.40;;;;;;;28.31;100.00;101129.63;4992689;28;20508;-44
2023/06/21 06:31:54;;;;;;;13.67;12.83;;;;;;;28.92;100.00;101120.06;4992817;28;20461;-46
2023/06/21 06:34:22;;;;;;;11.67;10.63;;;;;;;29.26;100.00;101120.41;4990404;28;20473;-45
2023/06/21 06:36:51;;;;;;;12.03;11.27;;;;;;;28.87;100.00;101125.69;4992900;28;20468;-44
2023/06/21 06:39:39;;;;;;;10.50;9.70;;;;;;;28.33;100.00;101137.53;4992752;28;20993;-42
2023/06/21 06:42:09;;;;;;;11.80;10.90;;;;;;;27.78;100.00;101148.41;4992837;28;20434;-43
2023/06/21 06:44:38;;;;;;;12.03;11.03;;;;;;;27.04;100.00;101148.50;4991706;28;20462;-43
2023/06/21 06:47:06;;;;;;;12.20;11.30;;;;;;;26.52;100.00;101155.75;4992726;28;20487;-45
2023/06/21 06:49:34;;;;;;;14.10;12.77;;;;;;;26.23;100.00;101157.72;4992777;28;20457;-45
2023/06/21 06:52:04;;;;;;;15.23;13.93;;;;;;;25.57;100.00;101158.34;4992512;28;20465;-48
2023/06/21 06:54:31;;;;;;;14.50;13.27;;;;;;;25.15;100.00;101167.09;4991997;28;20473;-48
2023/06/21 06:56:59;;;;;;;16.17;14.80;;;;;;;24.73;100.00;101173.00;4992715;28;20430;-47
2023/06/21 06:59:27;;;;;;;18.40;16.70;;;;;;;24.41;100.00;101171.78;4991261;28;20983;-46
2023/06/21 07:01:57;;;;;;;19.97;17.90;;;;;;;24.39;100.00;101180.25;5001845;28;20429;-46
2023/06/21 07:04:25;;;;;;;17.93;16.43;;;;;;;24.39;100.00;101177.53;4991096;28;20484;-47
2023/06/21 07:06:54;;;;;;;18.30;16.80;;;;;;;24.51;100.00;101183.47;4990813;28;20433;-46
2023/06/21 07:09:23;;;;;;;17.73;16.03;;;;;;;24.49;100.00;101182.94;4990912;28;20496;-46
2023/06/21 07:11:51;;;;;;;18.70;17.30;;;;;;;24.26;100.00;101186.28;4990951;28;20441;-48
2023/06/21 07:14:19;;;;;;;19.33;17.53;;;;;;;24.23;100.00;101192.28;4991254;28;20474;-45
2023/06/21 07:16:50;;;;;;;21.23;19.33;;;;;;;24.01;100.00;101200.72;4991526;28;20437;-47
2023/06/21 07:19:18;;;;;;;17.97;16.40;;;;;;;24.16;100.00;101191.78;4991067;28;20507;-47
2023/06/21 07:21:45;;;;;;;20.50;18.80;;;;;;;24.26;100.00;101193.63;4990956;28;21135;-44
2023/06/21 07:24:13;;;;;;;20.17;18.47;;;;;;;24.41;100.00;101185.41;4990903;28;20457;-44
2023/06/21 07:26:42;;;;;;;19.70;18.07;;;;;;;24.44;100.00;101193.84;4991241;28;20492;-45
2023/06/21 07:29:10;;;;;;;21.47;19.47;;;;;;;24.49;100.00;101198.50;4991095;28;20916;-47
2023/06/21 07:31:38;;;;;;;19.93;18.30;;;;;;;24.54;100.00;101203.91;4990303;28;20499;-44
2023/06/21 07:34:07;;;;;;;21.63;19.50;;;;;;;24.53;100.00;101207.72;4990609;28;20555;-44
2023/06/21 07:36:39;;;;;;;20.27;18.53;;;;;;;24.68;100.00;101200.31;4991219;28;20426;-46
2023/06/21 07:39:08;;;;;;;17.63;16.10;;;;;;;25.22;100.00;101213.16;4990950;28;20465;-44
2023/06/21 07:41:36;;;;;;;19.47;17.77;;;;;;;25.54;100.00;101207.25;4990827;28;20848;-46
2023/06/21 07:44:05;;;;;;;18.40;16.70;;;;;;;25.41;100.00;101211.41;4990541;28;20465;-44
2023/06/21 07:46:33;;;;;;;20.40;18.30;;;;;;;25.75;100.00;101212.28;4991020;28;20448;-47
2023/06/21 07:49:01;;;;;;;17.83;16.20;;;;;;;26.06;100.00;101217.47;4990816;28;20511;-47
2023/06/21 07:51:29;;;;;;;16.80;15.27;;;;;;;26.01;100.00;101226.53;4989567;28;20445;-45
2023/06/21 07:53:57;;;;;;;18.40;16.90;;;;;;;25.98;100.00;101223.56;4990044;28;20477;-47
2023/06/21 07:56:24;;;;;;;17.93;16.47;;;;;;;26.20;100.00;101232.13;4992072;28;20860;-46
2023/06/21 07:58:52;;;;;;;17.77;16.20;;;;;;;26.21;100.00;101231.03;4994140;28;20793;-46
2023/06/21 08:01:21;;;;;;;20.10;18.30;;;;;;;25.91;100.00;101234.00;4993695;28;20495;-47
2023/06/21 08:03:49;;;;;;;20.30;18.57;;;;;;;26.39;100.00;101233.84;4993741;28;20469;-44
2023/06/21 08:06:17;;;;;;;19.40;17.73;;;;;;;26.69;100.00;101226.38;4994559;28;20532;-45
2023/06/21 08:08:44;;;;;;;21.50;19.90;;;;;;;26.83;100.00;101228.16;4993963;28;20465;-47
2023/06/21 08:11:12;;;;;;;20.57;18.87;;;;;;;27.37;100.00;101233.16;4993463;28;20468;-46
2023/06/21 08:13:40;;;;;;;21.00;19.07;;;;;;;27.78;100.00;101230.63;4993441;28;21053;-50
2023/06/21 08:16:08;;;;;;;18.07;16.67;;;;;;;27.12;100.00;101225.28;4994134;28;21007;-46
2023/06/21 08:18:37;;;;;;;19.83;17.83;;;;;;;26.60;100.00;101239.91;4994139;28;20465;-44
2023/06/21 08:21:05;;;;;;;19.57;17.97;;;;;;;26.34;100.00;101247.53;4994291;28;21137;-44
2023/06/21 08:23:33;;;;;;;19.87;18.07;;;;;;;26.24;100.00;101246.84;4993484;28;20543;-47
2023/06/21 08:26:01;;;;;;;20.73;18.97;;;;;;;26.61;100.00;101257.13;4994542;28;20429;-45
2023/06/21 08:28:28;;;;;;;22.33;20.17;;;;;;;26.61;100.00;101257.91;4987790;28;20460;-45
2023/06/21 08:30:56;;;;;;;23.00;21.00;;;;;;;26.66;100.00;101255.16;4993833;28;20434;-44
2023/06/21 08:33:24;;;;;;;21.57;19.73;;;;;;;26.93;100.00;101255.41;4993422;28;20464;-45
2023/06/21 08:35:53;;;;;;;23.53;21.20;;;;;;;26.77;100.00;101253.91;4994049;28;20509;-45
2023/06/21 08:38:21;;;;;;;22.87;20.73;;;;;;;26.63;100.00;101263.94;4994097;28;20545;-44
2023/06/21 08:40:59;;;;;;;24.97;22.87;;;;;;;26.27;100.00;101270.88;4993984;28;20433;-48
2023/06/21 08:43:28;;;;;;;26.07;23.67;;;;;;;25.89;100.00;101269.81;4992971;28;20800;-46
2023/06/21 08:45:55;;;;;;;27.07;24.40;;;;;;;25.69;100.00;101276.25;4994368;28;20492;-44
2023/06/21 08:48:24;;;;;;;25.33;23.10;;;;;;;25.53;100.00;101276.63;4994246;28;20457;-45
2023/06/21 08:50:53;;;;;;;26.37;24.03;;;;;;;25.36;100.00;101274.22;4993681;28;20445;-46
2023/06/21 08:53:27;;;;;;;25.30;22.90;;;;;;;25.36;100.00;101279.69;4989125;28;20881;-48
2023/06/21 08:55:57;;;;;;;24.10;21.77;;;;;;;25.41;100.00;101292.50;4974256;28;20476;-45
2023/06/21 08:58:28;;;;;;;25.67;23.37;;;;;;;25.04;100.00;101288.31;4974296;28;21004;-45
2023/06/21 09:00:58;;;;;;;38.63;26.80;;;;;;;24.84;100.00;101285.69;4973989;28;20434;-48
2023/06/21 09:03:31;;;;;;;25.97;23.50;;;;;;;24.84;100.00;101295.75;4973666;28;20458;-45
2023/06/21 09:06:04;;;;;;;26.77;24.23;;;;;;;24.94;100.00;101299.25;4974088;28;20928;-44
2023/06/21 09:08:32;;;;;;;24.13;21.70;;;;;;;25.31;100.00;101286.00;4973261;28;20493;-47
2023/06/21 09:11:00;;;;;;;23.13;21.23;;;;;;;26.11;100.00;101300.22;4963249;28;20466;-44
2023/06/21 09:13:29;;;;;;;22.93;20.53;;;;;;;26.42;100.00;101295.34;4959698;28;20493;-45
2023/06/21 09:15:57;;;;;;;24.67;22.13;;;;;;;26.35;100.00;101306.59;4974646;28;20486;-46
2023/06/21 09:18:26;;;;;;;21.87;19.97;;;;;;;26.56;100.00;101306.41;4974652;28;20984;-45
2023/06/21 09:20:55;;;;;;;20.90;18.77;;;;;;;26.83;100.00;101304.78;4974724;28;20434;-44
2023/06/21 09:23:24;;;;;;;21.23;19.33;;;;;;;26.80;100.00;101310.84;4974144;28;20466;-46
2023/06/21 09:25:52;;;;;;;18.40;16.70;;;;;;;27.22;100.00;101303.75;4974833;28;20493;-44
2023/06/21 09:28:20;;;;;;;18.17;16.43;;;;;;;27.11;100.00;101318.69;4986428;28;20498;-48
2023/06/21 09:30:48;;;;;;;19.37;17.57;;;;;;;26.86;100.00;101314.31;4993931;28;20457;-44
2023/06/21 09:33:17;;;;;;;18.77;17.17;;;;;;;26.41;100.00;101312.84;4993307;28;20469;-47
2023/06/21 09:35:45;;;;;;;17.83;16.37;;;;;;;26.06;100.00;101319.41;4993637;28;20886;-46
2023/06/21 09:38:26;;;;;;;16.43;15.03;;;;;;;26.15;100.00;101330.59;4993954;28;20433;-46
2023/06/21 09:40:53;;;;;;;17.23;15.67;;;;;;;26.36;100.00;101329.31;4993849;28;20433;-46
2023/06/21 09:43:22;;;;;;;16.57;14.83;;;;;;;26.08;100.00;101338.25;4993367;28;20470;-49
2023/06/21 09:46:03;;;;;;;16.63;15.03;;;;;;;26.13;100.00;101343.69;4993902;28;20986;-47
2023/06/21 09:48:35;;;;;;;14.80;13.63;;;;;;;26.00;100.00;101350.63;4993635;28;20453;-46
2023/06/21 09:51:04;;;;;;;14.23;12.43;;;;;;;26.61;100.00;101345.47;4993722;28;20438;-45
2023/06/21 09:53:33;;;;;;;13.40;12.10;;;;;;;27.40;100.00;101352.25;4993074;28;20461;-44
2023/06/21 09:56:01;;;;;;;15.03;13.00;;;;;;;27.49;100.00;101350.53;4993103;28;21061;-43
2023/06/21 09:58:29;;;;;;;14.60;13.40;;;;;;;27.23;100.00;101355.50;4993205;28;20643;-49
2023/06/21 10:00:57;;;;;;;14.67;13.33;;;;;;;27.19;100.00;101364.56;4993112;28;20437;-44
2023/06/21 10:03:28;;;;;;;13.60;12.33;;;;;;;26.93;100.00;101369.53;4992699;28;20465;-45
2023/06/21 10:05:57;;;;;;;13.07;11.80;;;;;;;27.11;100.00;101363.31;4991551;28;20481;-47
2023/06/21 10:08:27;;;;;;;12.67;11.63;;;;;;;27.81;98.04;101371.72;4994106;28;20468;-43
2023/06/21 10:10:56;;;;;;;13.23;11.93;;;;;;;28.10;93.60;101366.13;4998292;28;20915;-46
2023/06/21 10:13:28;;;;;;;13.33;12.10;;;;;;;27.98;90.79;101378.34;4991098;28;20457;-46
2023/06/21 10:15:56;;;;;;;13.00;11.80;;;;;;;28.14;91.64;101373.44;4992403;28;20536;-44
2023/06/21 10:18:25;;;;;;;12.40;11.20;;;;;;;28.28;87.74;101376.25;4992207;28;20581;-45
2023/06/21 10:20:56;;;;;;;13.50;12.20;;;;;;;28.17;88.29;101377.50;4992479;28;20803;-44
2023/06/21 10:23:30;;;;;;;12.97;11.93;;;;;;;28.85;86.04;101373.06;4987852;28;20470;-45
2023/06/21 10:26:02;;;;;;;13.07;11.30;;;;;;;28.42;89.30;101380.69;4973285;28;20770;-47
2023/06/21 10:28:35;;;;;;;14.43;13.00;;;;;;;27.97;87.69;101373.97;4973060;28;20868;-46
2023/06/21 10:31:04;;;;;;;12.50;11.50;;;;;;;27.66;90.02;101377.44;4973193;28;20493;-44
2023/06/21 10:33:32;;;;;;;12.50;11.40;;;;;;;27.57;92.24;101380.00;4972352;28;20533;-44
2023/06/21 10:36:02;;;;;;;14.80;13.27;;;;;;;28.06;87.79;101384.28;4972531;28;20481;-45
2023/06/21 10:38:37;;;;;;;14.60;10.33;;;;;;;28.31;86.72;101390.19;4972577;28;21002;-44
2023/06/21 10:41:06;;;;;;;11.27;10.00;;;;;;;28.02;81.10;101386.75;4973162;28;20516;-45
2023/06/21 10:43:35;;;;;;;9.20;8.00;;;;;;;28.20;79.32;101388.72;4972696;28;20522;-45
2023/06/21 10:46:05;;;;;;;9.60;8.70;;;;;;;28.34;78.35;101395.09;4973033;28;20434;-44
2023/06/21 10:48:33;;;;;;;9.90;8.17;;;;;;;28.33;82.37;101384.41;4972791;28;20459;-47
2023/06/21 10:51:02;;;;;;;10.07;9.27;;;;;;;28.64;81.55;101390.19;4973110;28;20452;-44
2023/06/21 10:53:32;;;;;;;7.40;6.80;;;;;;;28.42;74.82;101401.81;4972460;28;20892;-52
2023/06/21 10:56:02;;;;;;;10.47;8.90;;;;;;;28.47;75.26;101401.72;4973303;28;20474;-44
2023/06/21 10:58:31;;;;;;;10.13;8.00;;;;;;;28.56;78.18;101399.91;4973117;28;20490;-44
2023/06/21 11:00:59;;;;;;;7.60;6.27;;;;;;;27.82;76.27;101417.22;4972874;28;20442;-44
2023/06/21 11:03:28;;;;;;;12.10;8.50;;;;;;;27.68;80.71;101411.66;4969197;28;20544;-46
2023/06/21 11:05:56;;;;;;;11.93;8.47;;;;;;;27.52;82.10;101412.97;4980170;28;20434;-45
2023/06/21 11:08:38;;;;;;;9.87;8.97;;;;;;;27.67;82.18;101417.41;4971819;28;20466;-45
2023/06/21 11:11:06;;;;;;;9.53;8.53;;;;;;;26.98;85.36;101423.41;4971539;28;20462;-44